sensor_id;sensor_type;location;lat;lon;timestamp;pressure;altitude;pressure_sealevel;temperature;humidity
22830;BME280;11581;51.250;6.778;2023-07-13T00:00:15;101029.69;;;20.64;42.36
22830;BME280;11581;51.250;6.778;2023-07-13T00:02:42;101021.78;;;20.62;42.63
22830;BME280;11581;51.250;6.778;2023-07-13T00:05:10;101025.72;;;20.60;42.92
22830;BME280;11581;51.250;6.778;2023-07-13T00:07:36;101026.75;;;20.59;42.46
22830;BME280;11581;51.250;6.778;2023-07-13T00:10:04;101028.00;;;20.56;42.65
22830;BME280;11581;51.250;6.778;2023-07-13T00:12:33;101023.19;;;20.52;43.22
22830;BME280;11581;51.250;6.778;2023-07-13T00:15:04;101012.56;;;20.44;43.23
22830;BME280;11581;51.250;6.778;2023-07-13T00:17:31;101021.94;;;20.48;43.03
22830;BME280;11581;51.250;6.778;2023-07-13T00:19:58;101026.72;;;20.46;43.16
22830;BME280;11581;51.250;6.778;2023-07-13T00:22:26;101030.69;;;20.43;43.46
22830;BME280;11581;51.250;6.778;2023-07-13T00:24:53;101020.88;;;20.36;43.16
22830;BME280;11581;51.250;6.778;2023-07-13T00:27:22;101017.16;;;20.37;43.16
22830;BME280;11581;51.250;6.778;2023-07-13T00:29:48;101024.41;;;20.36;43.30
22830;BME280;11581;51.250;6.778;2023-07-13T00:32:15;101025.88;;;20.32;43.61
22830;BME280;11581;51.250;6.778;2023-07-13T00:34:42;101037.13;;;20.29;43.70
22830;BME280;11581;51.250;6.778;2023-07-13T00:37:08;100978.22;;;19.97;43.49
22830;BME280;11581;51.250;6.778;2023-07-13T00:39:38;101029.81;;;20.23;44.09
22830;BME280;11581;51.250;6.778;2023-07-13T00:42:05;101021.63;;;20.17;43.72
22830;BME280;11581;51.250;6.778;2023-07-13T00:44:32;101025.00;;;20.19;43.71
22830;BME280;11581;51.250;6.778;2023-07-13T00:46:59;101027.06;;;20.17;43.99
22830;BME280;11581;51.250;6.778;2023-07-13T00:49:27;101028.31;;;20.14;44.50
22830;BME280;11581;51.250;6.778;2023-07-13T00:51:56;101034.97;;;20.12;44.42
22830;BME280;11581;51.250;6.778;2023-07-13T00:54:26;101031.59;;;20.10;44.37
22830;BME280;11581;51.250;6.778;2023-07-13T00:56:59;101030.97;;;20.08;45.16
22830;BME280;11581;51.250;6.778;2023-07-13T00:59:28;101027.41;;;20.07;43.78
22830;BME280;11581;51.250;6.778;2023-07-13T01:01:58;100971.47;;;19.73;44.25
22830;BME280;11581;51.250;6.778;2023-07-13T01:04:27;101026.16;;;20.03;44.24
22830;BME280;11581;51.250;6.778;2023-07-13T01:06:54;101013.16;;;19.85;44.68
22830;BME280;11581;51.250;6.778;2023-07-13T01:09:22;101022.34;;;19.98;44.88
22830;BME280;11581;51.250;6.778;2023-07-13T01:11:49;101014.44;;;19.89;44.94
22830;BME280;11581;51.250;6.778;2023-07-13T01:14:17;101025.91;;;19.92;45.13
22830;BME280;11581;51.250;6.778;2023-07-13T01:16:46;101019.84;;;19.89;45.44
22830;BME280;11581;51.250;6.778;2023-07-13T01:19:20;101027.31;;;19.87;45.57
22830;BME280;11581;51.250;6.778;2023-07-13T01:21:52;101024.00;;;19.85;45.76
22830;BME280;11581;51.250;6.778;2023-07-13T01:24:19;100997.25;;;19.69;45.50
22830;BME280;11581;51.250;6.778;2023-07-13T01:26:47;101017.06;;;19.76;45.37
22830;BME280;11581;51.250;6.778;2023-07-13T01:29:14;101024.78;;;19.79;45.51
22830;BME280;11581;51.250;6.778;2023-07-13T01:31:42;101027.69;;;19.78;45.76
22830;BME280;11581;51.250;6.778;2023-07-13T01:34:10;101016.41;;;19.68;45.91
22830;BME280;11581;51.250;6.778;2023-07-13T01:36:36;101022.22;;;19.71;45.78
22830;BME280;11581;51.250;6.778;2023-07-13T01:39:06;101016.81;;;19.65;46.37
22830;BME280;11581;51.250;6.778;2023-07-13T01:41:33;101014.69;;;19.60;45.97
22830;BME280;11581;51.250;6.778;2023-07-13T01:44:00;101031.78;;;19.67;46.51
22830;BME280;11581;51.250;6.778;2023-07-13T01:46:26;101033.22;;;19.63;46.65
22830;BME280;11581;51.250;6.778;2023-07-13T01:48:53;101031.78;;;19.61;46.48
22830;BME280;11581;51.250;6.778;2023-07-13T01:51:20;101038.38;;;19.58;46.81
22830;BME280;11581;51.250;6.778;2023-07-13T01:53:47;101030.66;;;19.55;46.72
22830;BME280;11581;51.250;6.778;2023-07-13T01:56:18;101024.16;;;19.43;46.87
22830;BME280;11581;51.250;6.778;2023-07-13T02:01:17;101028.13;;;19.47;46.96
22830;BME280;11581;51.250;6.778;2023-07-13T02:03:44;101034.59;;;19.46;47.09
22830;BME280;11581;51.250;6.778;2023-07-13T02:06:12;101031.44;;;19.43;47.17
22830;BME280;11581;51.250;6.778;2023-07-13T02:08:41;101035.38;;;19.40;48.11
22830;BME280;11581;51.250;6.778;2023-07-13T02:11:08;101033.69;;;19.39;47.34
22830;BME280;11581;51.250;6.778;2023-07-13T02:13:36;101036.78;;;19.36;47.85
22830;BME280;11581;51.250;6.778;2023-07-13T02:16:03;101022.66;;;19.34;47.57
22830;BME280;11581;51.250;6.778;2023-07-13T02:18:29;101029.69;;;19.29;47.70
22830;BME280;11581;51.250;6.778;2023-07-13T02:20:56;101040.91;;;19.32;47.68
22830;BME280;11581;51.250;6.778;2023-07-13T02:23:23;101041.13;;;19.31;48.10
22830;BME280;11581;51.250;6.778;2023-07-13T02:25:54;101039.44;;;19.30;49.23
22830;BME280;11581;51.250;6.778;2023-07-13T02:28:21;101047.75;;;19.28;48.37
22830;BME280;11581;51.250;6.778;2023-07-13T02:30:50;100958.31;;;18.75;48.87
22830;BME280;11581;51.250;6.778;2023-07-13T02:33:17;101045.41;;;19.25;48.26
22830;BME280;11581;51.250;6.778;2023-07-13T02:35:43;101045.81;;;19.22;48.71
22830;BME280;11581;51.250;6.778;2023-07-13T02:38:10;100988.34;;;18.86;48.81
22830;BME280;11581;51.250;6.778;2023-07-13T02:40:37;101047.25;;;19.18;48.65
22830;BME280;11581;51.250;6.778;2023-07-13T02:43:03;100997.53;;;18.92;48.80
22830;BME280;11581;51.250;6.778;2023-07-13T02:45:31;101026.56;;;19.04;48.86
22830;BME280;11581;51.250;6.778;2023-07-13T02:47:59;101047.16;;;19.12;49.48
22830;BME280;11581;51.250;6.778;2023-07-13T02:50:25;101049.06;;;19.11;48.88
22830;BME280;11581;51.250;6.778;2023-07-13T02:52:52;101051.09;;;19.09;49.48
22830;BME280;11581;51.250;6.778;2023-07-13T02:55:18;101044.03;;;19.08;49.24
22830;BME280;11581;51.250;6.778;2023-07-13T02:57:45;101047.13;;;19.05;49.37
22830;BME280;11581;51.250;6.778;2023-07-13T03:00:12;101051.69;;;19.05;49.26
22830;BME280;11581;51.250;6.778;2023-07-13T03:02:42;101061.69;;;19.04;49.41
22830;BME280;11581;51.250;6.778;2023-07-13T03:05:10;101056.66;;;19.01;50.20
22830;BME280;11581;51.250;6.778;2023-07-13T03:07:38;101045.84;;;19.01;49.99
22830;BME280;11581;51.250;6.778;2023-07-13T03:10:06;101048.75;;;19.00;50.37
22830;BME280;11581;51.250;6.778;2023-07-13T03:12:42;101047.91;;;18.99;50.17
22830;BME280;11581;51.250;6.778;2023-07-13T03:15:16;101012.72;;;18.72;50.24
22830;BME280;11581;51.250;6.778;2023-07-13T03:17:44;101055.38;;;18.97;50.38
22830;BME280;11581;51.250;6.778;2023-07-13T03:20:12;101053.69;;;18.96;50.73
22830;BME280;11581;51.250;6.778;2023-07-13T03:22:39;101059.09;;;18.96;50.41
22830;BME280;11581;51.250;6.778;2023-07-13T03:25:07;101052.03;;;18.95;50.60
22830;BME280;11581;51.250;6.778;2023-07-13T03:27:34;101053.03;;;18.94;50.78
22830;BME280;11581;51.250;6.778;2023-07-13T03:30:02;101046.94;;;18.86;50.43
22830;BME280;11581;51.250;6.778;2023-07-13T03:32:30;101070.28;;;18.93;50.62
22830;BME280;11581;51.250;6.778;2023-07-13T03:34:59;101062.38;;;18.92;50.59
22830;BME280;11581;51.250;6.778;2023-07-13T03:37:30;101045.28;;;18.85;51.36
22830;BME280;11581;51.250;6.778;2023-07-13T03:39:57;101061.09;;;18.88;50.81
22830;BME280;11581;51.250;6.778;2023-07-13T03:42:25;101076.47;;;18.87;51.02
22830;BME280;11581;51.250;6.778;2023-07-13T03:44:51;101067.75;;;18.85;51.29
22830;BME280;11581;51.250;6.778;2023-07-13T03:47:18;101070.63;;;18.84;51.29
22830;BME280;11581;51.250;6.778;2023-07-13T03:49:45;101000.47;;;18.34;51.18
22830;BME280;11581;51.250;6.778;2023-07-13T03:52:12;101083.31;;;18.83;51.58
22830;BME280;11581;51.250;6.778;2023-07-13T03:54:42;101079.75;;;18.83;52.03
22830;BME280;11581;51.250;6.778;2023-07-13T03:57:09;101080.59;;;18.83;51.51
22830;BME280;11581;51.250;6.778;2023-07-13T03:59:36;101094.13;;;18.83;51.67
22830;BME280;11581;51.250;6.778;2023-07-13T04:02:03;101096.44;;;18.86;51.58
22830;BME280;11581;51.250;6.778;2023-07-13T04:04:32;101085.91;;;18.77;51.63
22830;BME280;11581;51.250;6.778;2023-07-13T04:06:59;101097.28;;;18.87;51.67
22830;BME280;11581;51.250;6.778;2023-07-13T04:09:26;101105.19;;;18.88;51.82
22830;BME280;11581;51.250;6.778;2023-07-13T04:11:53;101106.84;;;18.89;52.07
22830;BME280;11581;51.250;6.778;2023-07-13T04:14:20;101102.31;;;18.90;51.64
22830;BME280;11581;51.250;6.778;2023-07-13T04:16:47;101105.81;;;18.90;51.66
22830;BME280;11581;51.250;6.778;2023-07-13T04:19:13;101108.13;;;18.93;51.88
22830;BME280;11581;51.250;6.778;2023-07-13T04:21:40;101054.59;;;18.61;51.55
22830;BME280;11581;51.250;6.778;2023-07-13T04:24:06;101108.59;;;18.97;51.66
22830;BME280;11581;51.250;6.778;2023-07-13T04:26:34;101107.38;;;18.99;51.65
22830;BME280;11581;51.250;6.778;2023-07-13T04:29:02;101115.28;;;19.01;51.64
22830;BME280;11581;51.250;6.778;2023-07-13T04:31:29;101115.75;;;19.04;51.40
22830;BME280;11581;51.250;6.778;2023-07-13T04:33:56;101106.59;;;19.05;51.61
22830;BME280;11581;51.250;6.778;2023-07-13T04:36:24;101112.63;;;19.07;51.35
22830;BME280;11581;51.250;6.778;2023-07-13T04:38:52;101119.53;;;19.10;51.35
22830;BME280;11581;51.250;6.778;2023-07-13T04:41:20;101129.13;;;19.12;51.26
22830;BME280;11581;51.250;6.778;2023-07-13T04:43:47;101101.78;;;19.01;51.16
22830;BME280;11581;51.250;6.778;2023-07-13T04:46:16;101121.66;;;19.14;51.88
22830;BME280;11581;51.250;6.778;2023-07-13T04:48:44;101098.50;;;19.05;51.49
22830;BME280;11581;51.250;6.778;2023-07-13T04:51:11;101115.03;;;19.17;51.51
22830;BME280;11581;51.250;6.778;2023-07-13T04:53:38;100929.63;;;18.11;51.34
22830;BME280;11581;51.250;6.778;2023-07-13T04:56:05;101114.44;;;19.21;51.93
22830;BME280;11581;51.250;6.778;2023-07-13T04:58:32;101121.31;;;19.24;51.61
22830;BME280;11581;51.250;6.778;2023-07-13T05:01:02;101125.53;;;19.26;52.56
22830;BME280;11581;51.250;6.778;2023-07-13T05:03:31;101091.28;;;19.12;52.14
22830;BME280;11581;51.250;6.778;2023-07-13T05:05:59;101126.03;;;19.36;51.70
22830;BME280;11581;51.250;6.778;2023-07-13T05:08:26;101124.63;;;19.40;51.77
22830;BME280;11581;51.250;6.778;2023-07-13T05:10:53;101131.50;;;19.43;51.75
22830;BME280;11581;51.250;6.778;2023-07-13T05:13:20;101067.53;;;19.08;52.04
22830;BME280;11581;51.250;6.778;2023-07-13T05:15:55;101131.16;;;19.52;52.79
22830;BME280;11581;51.250;6.778;2023-07-13T05:18:22;101129.97;;;19.61;51.79
22830;BME280;11581;51.250;6.778;2023-07-13T05:20:57;101144.00;;;19.71;52.48
22830;BME280;11581;51.250;6.778;2023-07-13T05:23:24;101136.38;;;19.81;51.63
22830;BME280;11581;51.250;6.778;2023-07-13T05:25:51;101141.44;;;19.91;51.36
22830;BME280;11581;51.250;6.778;2023-07-13T05:28:17;101141.06;;;20.01;51.36
22830;BME280;11581;51.250;6.778;2023-07-13T05:30:45;101146.97;;;20.11;51.38
22830;BME280;11581;51.250;6.778;2023-07-13T05:33:12;101152.91;;;20.21;51.08
22830;BME280;11581;51.250;6.778;2023-07-13T05:35:39;101150.66;;;20.31;51.11
22830;BME280;11581;51.250;6.778;2023-07-13T05:38:07;101155.50;;;20.42;51.14
22830;BME280;11581;51.250;6.778;2023-07-13T05:40:33;101155.56;;;20.55;50.88
22830;BME280;11581;51.250;6.778;2023-07-13T05:43:00;101155.59;;;20.68;51.10
22830;BME280;11581;51.250;6.778;2023-07-13T05:45:27;101159.00;;;20.83;50.79
22830;BME280;11581;51.250;6.778;2023-07-13T05:47:53;101166.59;;;21.00;51.02
22830;BME280;11581;51.250;6.778;2023-07-13T05:50:20;101159.13;;;21.22;50.96
22830;BME280;11581;51.250;6.778;2023-07-13T05:52:47;101160.78;;;21.49;50.94
22830;BME280;11581;51.250;6.778;2023-07-13T05:55:15;101172.09;;;21.85;50.61
22830;BME280;11581;51.250;6.778;2023-07-13T05:57:41;101146.78;;;22.04;50.40
22830;BME280;11581;51.250;6.778;2023-07-13T06:00:09;101135.63;;;22.38;49.45
22830;BME280;11581;51.250;6.778;2023-07-13T06:02:39;101160.34;;;23.12;48.53
22830;BME280;11581;51.250;6.778;2023-07-13T06:05:06;101167.44;;;23.50;47.07
22830;BME280;11581;51.250;6.778;2023-07-13T06:07:33;101168.00;;;23.83;46.40
22830;BME280;11581;51.250;6.778;2023-07-13T06:09:59;101180.03;;;24.19;46.16
22830;BME280;11581;51.250;6.778;2023-07-13T06:12:27;101178.28;;;24.60;45.61
22830;BME280;11581;51.250;6.778;2023-07-13T06:14:54;101179.53;;;25.12;46.01
22830;BME280;11581;51.250;6.778;2023-07-13T06:17:20;101182.78;;;25.73;44.99
22830;BME280;11581;51.250;6.778;2023-07-13T06:19:47;101168.06;;;26.20;44.27
22830;BME280;11581;51.250;6.778;2023-07-13T06:22:14;101193.91;;;27.03;42.70
22830;BME280;11581;51.250;6.778;2023-07-13T06:24:40;101183.91;;;27.70;41.66
22830;BME280;11581;51.250;6.778;2023-07-13T06:27:07;101148.97;;;28.10;40.18
22830;BME280;11581;51.250;6.778;2023-07-13T06:29:35;101189.31;;;28.96;38.88
22830;BME280;11581;51.250;6.778;2023-07-13T06:32:01;101197.06;;;29.52;38.55
22830;BME280;11581;51.250;6.778;2023-07-13T06:34:28;101194.75;;;30.02;36.85
22830;BME280;11581;51.250;6.778;2023-07-13T06:36:55;101193.91;;;30.43;36.36
22830;BME280;11581;51.250;6.778;2023-07-13T06:39:21;101175.88;;;30.67;35.72
22830;BME280;11581;51.250;6.778;2023-07-13T06:41:48;101202.47;;;31.13;34.38
22830;BME280;11581;51.250;6.778;2023-07-13T06:44:14;101191.81;;;31.32;33.09
22830;BME280;11581;51.250;6.778;2023-07-13T06:46:42;101212.41;;;31.24;31.94
22830;BME280;11581;51.250;6.778;2023-07-13T06:49:09;101212.06;;;30.96;32.27
22830;BME280;11581;51.250;6.778;2023-07-13T06:51:37;101213.75;;;30.50;31.88
22830;BME280;11581;51.250;6.778;2023-07-13T06:54:03;101207.63;;;29.96;32.30
22830;BME280;11581;51.250;6.778;2023-07-13T06:56:30;101148.69;;;28.98;32.96
22830;BME280;11581;51.250;6.778;2023-07-13T06:58:57;101220.34;;;28.75;33.66
22830;BME280;11581;51.250;6.778;2023-07-13T07:01:24;101223.88;;;28.16;34.50
22830;BME280;11581;51.250;6.778;2023-07-13T07:03:51;101225.09;;;27.58;35.35
22830;BME280;11581;51.250;6.778;2023-07-13T07:06:20;101233.41;;;27.07;36.23
22830;BME280;11581;51.250;6.778;2023-07-13T07:08:49;101160.25;;;26.12;36.62
22830;BME280;11581;51.250;6.778;2023-07-13T07:11:18;101210.38;;;26.06;37.78
22830;BME280;11581;51.250;6.778;2023-07-13T07:13:45;101207.13;;;25.63;37.73
22830;BME280;11581;51.250;6.778;2023-07-13T07:16:12;101181.03;;;25.08;38.64
22830;BME280;11581;51.250;6.778;2023-07-13T07:18:38;101235.59;;;25.08;39.63
22830;BME280;11581;51.250;6.778;2023-07-13T07:21:06;101241.16;;;24.83;40.04
22830;BME280;11581;51.250;6.778;2023-07-13T07:23:33;101233.25;;;24.64;40.45
22830;BME280;11581;51.250;6.778;2023-07-13T07:26:00;101239.84;;;24.50;41.01
22830;BME280;11581;51.250;6.778;2023-07-13T07:28:27;101227.28;;;24.31;41.73
22830;BME280;11581;51.250;6.778;2023-07-13T07:30:56;101245.94;;;24.34;42.26
22830;BME280;11581;51.250;6.778;2023-07-13T07:33:23;101246.50;;;24.36;42.04
22830;BME280;11581;51.250;6.778;2023-07-13T07:35:50;101244.41;;;24.38;42.10
22830;BME280;11581;51.250;6.778;2023-07-13T07:38:19;101154.38;;;23.83;42.01
22830;BME280;11581;51.250;6.778;2023-07-13T07:40:45;101238.78;;;24.33;41.93
22830;BME280;11581;51.250;6.778;2023-07-13T07:43:12;101247.41;;;24.30;42.47
22830;BME280;11581;51.250;6.778;2023-07-13T07:45:40;101234.84;;;24.29;42.66
22830;BME280;11581;51.250;6.778;2023-07-13T07:48:07;101245.31;;;24.32;42.68
22830;BME280;11581;51.250;6.778;2023-07-13T07:50:35;101193.94;;;24.11;42.77
22830;BME280;11581;51.250;6.778;2023-07-13T07:53:02;101236.22;;;24.38;42.92
22830;BME280;11581;51.250;6.778;2023-07-13T07:55:34;101247.34;;;24.54;42.91
22830;BME280;11581;51.250;6.778;2023-07-13T07:58:01;101242.47;;;24.63;42.92
22830;BME280;11581;51.250;6.778;2023-07-13T08:00:27;101246.72;;;24.77;43.15
22830;BME280;11581;51.250;6.778;2023-07-13T08:02:55;101242.81;;;25.02;43.17
22830;BME280;11581;51.250;6.778;2023-07-13T08:05:22;101235.88;;;25.36;43.27
22830;BME280;11581;51.250;6.778;2023-07-13T08:07:49;101233.59;;;25.74;42.58
22830;BME280;11581;51.250;6.778;2023-07-13T08:10:16;101222.63;;;26.03;41.28
22830;BME280;11581;51.250;6.778;2023-07-13T08:12:44;101236.75;;;26.35;40.49
22830;BME280;11581;51.250;6.778;2023-07-13T08:15:13;101236.13;;;26.56;39.82
22830;BME280;11581;51.250;6.778;2023-07-13T08:17:40;101230.94;;;26.66;39.52
22830;BME280;11581;51.250;6.778;2023-07-13T08:20:08;101228.28;;;26.71;39.31
22830;BME280;11581;51.250;6.778;2023-07-13T08:22:35;101231.75;;;26.67;39.38
22830;BME280;11581;51.250;6.778;2023-07-13T08:25:01;101233.66;;;26.66;39.31
22830;BME280;11581;51.250;6.778;2023-07-13T08:27:29;101221.41;;;26.57;39.48
22830;BME280;11581;51.250;6.778;2023-07-13T08:29:57;101227.69;;;26.58;39.61
22830;BME280;11581;51.250;6.778;2023-07-13T08:32:23;101226.88;;;26.57;39.67
22830;BME280;11581;51.250;6.778;2023-07-13T08:34:50;101176.97;;;26.27;39.87
22830;BME280;11581;51.250;6.778;2023-07-13T08:37:17;101225.94;;;26.63;40.03
22830;BME280;11581;51.250;6.778;2023-07-13T08:39:45;101207.47;;;26.59;39.53
22830;BME280;11581;51.250;6.778;2023-07-13T08:42:32;101225.66;;;26.76;39.68
22830;BME280;11581;51.250;6.778;2023-07-13T08:45:08;101217.44;;;26.88;39.89
22830;BME280;11581;51.250;6.778;2023-07-13T08:47:41;101220.69;;;27.01;39.74
22830;BME280;11581;51.250;6.778;2023-07-13T08:50:12;101224.22;;;27.13;39.32
22830;BME280;11581;51.250;6.778;2023-07-13T08:52:41;101221.34;;;27.20;39.13
22830;BME280;11581;51.250;6.778;2023-07-13T08:55:13;101220.41;;;27.26;39.01
22830;BME280;11581;51.250;6.778;2023-07-13T08:57:42;101220.47;;;27.31;38.94
22830;BME280;11581;51.250;6.778;2023-07-13T09:00:12;101208.78;;;27.35;39.12
22830;BME280;11581;51.250;6.778;2023-07-13T09:02:43;101225.59;;;27.55;39.16
22830;BME280;11581;51.250;6.778;2023-07-13T09:05:13;101227.25;;;27.73;38.78
22830;BME280;11581;51.250;6.778;2023-07-13T09:07:56;101214.66;;;27.88;38.27
22830;BME280;11581;51.250;6.778;2023-07-13T09:10:28;101200.72;;;27.90;37.93
22830;BME280;11581;51.250;6.778;2023-07-13T09:13:07;101221.13;;;28.16;37.71
22830;BME280;11581;51.250;6.778;2023-07-13T09:15:44;101226.28;;;28.29;37.57
22830;BME280;11581;51.250;6.778;2023-07-13T09:18:15;101234.66;;;28.39;37.18
22830;BME280;11581;51.250;6.778;2023-07-13T09:20:47;101240.81;;;28.46;36.92
22830;BME280;11581;51.250;6.778;2023-07-13T09:23:16;101211.56;;;28.35;36.62
22830;BME280;11581;51.250;6.778;2023-07-13T09:25:47;101228.06;;;28.40;36.70
22830;BME280;11581;51.250;6.778;2023-07-13T09:28:18;101239.47;;;28.32;36.73
22830;BME280;11581;51.250;6.778;2023-07-13T09:30:55;101228.94;;;28.24;36.97
22830;BME280;11581;51.250;6.778;2023-07-13T09:33:23;101231.63;;;28.19;37.08
22830;BME280;11581;51.250;6.778;2023-07-13T09:35:50;101236.44;;;28.12;36.93
22830;BME280;11581;51.250;6.778;2023-07-13T09:38:18;101243.97;;;28.04;36.75
22830;BME280;11581;51.250;6.778;2023-07-13T09:41:11;101237.78;;;27.92;37.06
22830;BME280;11581;51.250;6.778;2023-07-13T09:44:00;101240.88;;;27.84;37.16
22830;BME280;11581;51.250;6.778;2023-07-13T09:46:28;101227.63;;;27.76;37.17
22830;BME280;11581;51.250;6.778;2023-07-13T09:48:55;101233.34;;;27.75;37.18
22830;BME280;11581;51.250;6.778;2023-07-13T09:51:22;101252.03;;;27.78;37.22
22830;BME280;11581;51.250;6.778;2023-07-13T09:53:49;101251.69;;;27.74;36.85
22830;BME280;11581;51.250;6.778;2023-07-13T09:56:20;101216.94;;;27.47;36.57
22830;BME280;11581;51.250;6.778;2023-07-13T09:58:47;101257.47;;;27.61;37.15
22830;BME280;11581;51.250;6.778;2023-07-13T10:01:14;101254.38;;;27.58;37.45
22830;BME280;11581;51.250;6.778;2023-07-13T10:03:52;101263.44;;;27.58;37.19
22830;BME280;11581;51.250;6.778;2023-07-13T10:06:21;101256.38;;;27.62;37.35
22830;BME280;11581;51.250;6.778;2023-07-13T10:08:49;101259.84;;;27.69;37.15
22830;BME280;11581;51.250;6.778;2023-07-13T10:11:19;101260.50;;;27.76;36.96
22830;BME280;11581;51.250;6.778;2023-07-13T10:13:51;101230.69;;;27.63;36.86
22830;BME280;11581;51.250;6.778;2023-07-13T10:16:18;101262.44;;;27.92;36.84
22830;BME280;11581;51.250;6.778;2023-07-13T10:18:49;101254.88;;;27.99;36.69
22830;BME280;11581;51.250;6.778;2023-07-13T10:21:18;101214.66;;;27.88;36.97
22830;BME280;11581;51.250;6.778;2023-07-13T10:23:49;101251.34;;;28.37;36.58
22830;BME280;11581;51.250;6.778;2023-07-13T10:26:19;101242.69;;;28.62;36.04
22830;BME280;11581;51.250;6.778;2023-07-13T10:28:52;101257.44;;;28.99;34.75
22830;BME280;11581;51.250;6.778;2023-07-13T10:31:20;101256.09;;;29.23;34.88
22830;BME280;11581;51.250;6.778;2023-07-13T10:33:49;101254.06;;;29.40;34.68
22830;BME280;11581;51.250;6.778;2023-07-13T10:36:23;101261.97;;;29.58;33.93
22830;BME280;11581;51.250;6.778;2023-07-13T10:38:55;101263.81;;;29.74;33.96
22830;BME280;11581;51.250;6.778;2023-07-13T10:41:24;101258.34;;;29.79;33.64
22830;BME280;11581;51.250;6.778;2023-07-13T10:43:53;101197.53;;;29.44;33.22
22830;BME280;11581;51.250;6.778;2023-07-13T10:46:24;101251.16;;;29.73;33.08
22830;BME280;11581;51.250;6.778;2023-07-13T10:48:57;101256.28;;;29.64;32.97
22830;BME280;11581;51.250;6.778;2023-07-13T10:51:25;101230.00;;;29.20;33.16
22830;BME280;11581;51.250;6.778;2023-07-13T10:54:16;101251.63;;;29.17;33.52
22830;BME280;11581;51.250;6.778;2023-07-13T10:56:43;101272.81;;;29.00;33.58
22830;BME280;11581;51.250;6.778;2023-07-13T10:59:13;101269.50;;;28.76;33.85
22830;BME280;11581;51.250;6.778;2023-07-13T11:01:50;101279.34;;;28.56;34.34
22830;BME280;11581;51.250;6.778;2023-07-13T11:04:19;101272.38;;;28.48;34.78
22830;BME280;11581;51.250;6.778;2023-07-13T11:06:49;101262.00;;;28.50;34.92
22830;BME280;11581;51.250;6.778;2023-07-13T11:09:37;101263.47;;;28.58;34.69
22830;BME280;11581;51.250;6.778;2023-07-13T11:12:26;101269.63;;;28.65;34.40
22830;BME280;11581;51.250;6.778;2023-07-13T11:15:11;101265.84;;;28.71;34.34
22830;BME280;11581;51.250;6.778;2023-07-13T11:17:47;101207.56;;;28.42;33.82
22830;BME280;11581;51.250;6.778;2023-07-13T11:20:37;101255.22;;;28.96;34.34
22830;BME280;11581;51.250;6.778;2023-07-13T11:23:29;101252.78;;;29.21;34.11
22830;BME280;11581;51.250;6.778;2023-07-13T11:25:56;101245.91;;;29.45;33.91
22830;BME280;11581;51.250;6.778;2023-07-13T11:28:27;101244.72;;;29.62;33.13
22830;BME280;11581;51.250;6.778;2023-07-13T11:31:01;101252.81;;;29.74;32.72
22830;BME280;11581;51.250;6.778;2023-07-13T11:33:49;101209.75;;;29.58;32.80
22830;BME280;11581;51.250;6.778;2023-07-13T11:36:19;101232.44;;;29.70;31.83
22830;BME280;11581;51.250;6.778;2023-07-13T11:38:55;101242.91;;;29.73;32.45
22830;BME280;11581;51.250;6.778;2023-07-13T11:41:27;101192.66;;;29.51;32.36
22830;BME280;11581;51.250;6.778;2023-07-13T11:44:04;101240.41;;;30.03;32.73
22830;BME280;11581;51.250;6.778;2023-07-13T11:46:31;101230.47;;;30.34;32.83
22830;BME280;11581;51.250;6.778;2023-07-13T11:48:57;101232.66;;;30.78;32.73
22830;BME280;11581;51.250;6.778;2023-07-13T11:51:28;101230.06;;;31.18;31.33
22830;BME280;11581;51.250;6.778;2023-07-13T11:53:59;101214.16;;;31.50;30.76
22830;BME280;11581;51.250;6.778;2023-07-13T11:56:27;101219.44;;;32.07;30.24
22830;BME280;11581;51.250;6.778;2023-07-13T11:58:56;101183.78;;;32.26;29.59
22830;BME280;11581;51.250;6.778;2023-07-13T12:01:25;101220.09;;;32.78;29.34
22830;BME280;11581;51.250;6.778;2023-07-13T12:03:54;101186.66;;;32.84;28.45
22830;BME280;11581;51.250;6.778;2023-07-13T12:06:27;101223.13;;;33.30;27.23
22830;BME280;11581;51.250;6.778;2023-07-13T12:08:58;101208.75;;;33.38;26.72
22830;BME280;11581;51.250;6.778;2023-07-13T12:11:26;101205.22;;;33.22;27.44
22830;BME280;11581;51.250;6.778;2023-07-13T12:13:53;101219.31;;;33.21;26.95
22830;BME280;11581;51.250;6.778;2023-07-13T12:16:28;101222.75;;;33.03;26.96
22830;BME280;11581;51.250;6.778;2023-07-13T12:18:56;101218.13;;;32.83;27.49
22830;BME280;11581;51.250;6.778;2023-07-13T12:21:31;101217.38;;;32.63;27.07
22830;BME280;11581;51.250;6.778;2023-07-13T12:23:58;101179.94;;;32.11;27.44
22830;BME280;11581;51.250;6.778;2023-07-13T12:26:28;101214.16;;;32.26;27.49
22830;BME280;11581;51.250;6.778;2023-07-13T12:28:55;101206.47;;;32.02;27.18
22830;BME280;11581;51.250;6.778;2023-07-13T12:31:26;101215.81;;;31.71;27.59
22830;BME280;11581;51.250;6.778;2023-07-13T12:33:57;101222.97;;;31.52;27.73
22830;BME280;11581;51.250;6.778;2023-07-13T12:36:25;101185.72;;;31.20;28.65
22830;BME280;11581;51.250;6.778;2023-07-13T12:38:53;101216.34;;;31.38;28.46
22830;BME280;11581;51.250;6.778;2023-07-13T12:41:20;101213.59;;;31.43;28.79
22830;BME280;11581;51.250;6.778;2023-07-13T12:43:48;101211.13;;;31.52;28.24
22830;BME280;11581;51.250;6.778;2023-07-13T12:46:18;101219.13;;;31.63;28.24
22830;BME280;11581;51.250;6.778;2023-07-13T12:48:49;101220.50;;;31.76;27.47
22830;BME280;11581;51.250;6.778;2023-07-13T12:51:15;101217.50;;;31.87;27.82
22830;BME280;11581;51.250;6.778;2023-07-13T12:53:48;101208.69;;;31.90;26.92
22830;BME280;11581;51.250;6.778;2023-07-13T12:56:19;101227.44;;;31.83;26.59
22830;BME280;11581;51.250;6.778;2023-07-13T12:58:49;101224.38;;;31.70;27.13
22830;BME280;11581;51.250;6.778;2023-07-13T13:01:21;101137.72;;;31.06;27.70